Sparks, Oklahoma
Current Conditions -  °F | °C
As of 10:55 PM on Wednesday 22 Oct 2014 (Local Time) from KCQB Reporting Station
Moderate Rain Moderate Rain  
Wind Chill: 66°   Ceiling: 7000
Heat Index: 66°   Visibility: 5mi
Dew Point: 66°   Wind: 0mph
Humidity: 100%   Direction: NA
Pressure: 30.14"   Gusts: NA
Location:  35.61°N, 96.82°W
Report Text: KCQB 230355Z AUTO 00000KT 5SM RA SCT041 BKN070 OVC090 19/19 A3014 RMK AO2
Loading
Personal Weather Stations






























Interactive Weather Map
Tropical Storm Tracking
New forecast layout! Learn more

10-Day Weather Forecast

Advertisements
Track Severe Weather on mobile